createdAt,value
2022-09-17T00:01:53.841Z,11.60
2022-09-17T00:03:56.630Z,11.60
2022-09-17T00:06:02.671Z,11.60
2022-09-17T00:08:05.685Z,11.60
2022-09-17T00:10:07.525Z,11.60
2022-09-17T00:12:09.191Z,11.50
2022-09-17T00:14:14.688Z,11.50
2022-09-17T00:16:36.623Z,11.50
2022-09-17T00:18:41.586Z,11.50
2022-09-17T00:20:44.260Z,11.50
2022-09-17T00:22:45.857Z,11.50
2022-09-17T00:24:47.486Z,11.50
2022-09-17T00:26:49.473Z,11.40
2022-09-17T00:28:51.889Z,11.40
2022-09-17T00:30:53.621Z,11.40
2022-09-17T00:32:57.813Z,11.40
2022-09-17T00:34:59.475Z,11.30
2022-09-17T00:37:01.085Z,11.30
2022-09-17T00:39:03.521Z,11.30
2022-09-17T00:41:06.203Z,11.30
2022-09-17T00:43:11.654Z,11.30
2022-09-17T00:45:13.794Z,11.30
2022-09-17T00:47:21.605Z,11.20
2022-09-17T00:49:26.740Z,11.30
2022-09-17T00:51:33.546Z,11.20
2022-09-17T00:53:35.185Z,11.20
2022-09-17T00:55:41.612Z,11.30
2022-09-17T00:57:45.867Z,11.30
2022-09-17T00:59:47.762Z,11.30
2022-09-17T01:01:49.531Z,11.30
2022-09-17T01:03:51.221Z,11.20
2022-09-17T01:06:02.295Z,11.20
2022-09-17T01:08:16.165Z,11.20
2022-09-17T01:10:23.874Z,11.20
2022-09-17T01:12:49.000Z,11.10
2022-09-17T01:14:50.597Z,11.10
2022-09-17T01:17:25.930Z,11.10
2022-09-17T01:19:42.623Z,11.00
2022-09-17T01:21:53.485Z,11.10
2022-09-17T01:24:12.824Z,11.00
2022-09-17T01:26:17.315Z,11.10
2022-09-17T01:28:40.987Z,11.10
2022-09-17T01:30:51.825Z,11.10
2022-09-17T01:33:02.798Z,11.00
2022-09-17T01:35:07.183Z,11.00
2022-09-17T01:37:17.523Z,11.00
2022-09-17T01:39:22.255Z,11.00
2022-09-17T01:41:31.131Z,11.00
2022-09-17T01:43:36.745Z,11.00
2022-09-17T01:45:38.343Z,11.00
2022-09-17T01:47:43.954Z,11.00
2022-09-17T01:49:46.016Z,11.00
2022-09-17T01:51:48.947Z,10.90
2022-09-17T01:53:57.932Z,10.90
2022-09-17T01:55:59.915Z,10.90
2022-09-17T01:58:07.739Z,10.90
2022-09-17T02:00:11.836Z,10.90
2022-09-17T02:02:15.679Z,11.00
2022-09-17T02:04:23.170Z,11.00
2022-09-17T02:06:29.903Z,11.00
2022-09-17T02:08:36.632Z,11.00
2022-09-17T02:10:41.381Z,11.00
2022-09-17T02:12:45.908Z,11.00
2022-09-17T02:14:50.021Z,10.90
2022-09-17T02:16:53.931Z,10.90
2022-09-17T02:19:00.853Z,10.90
2022-09-17T02:21:06.957Z,10.90
2022-09-17T02:23:12.959Z,10.90
2022-09-17T02:25:26.321Z,10.80
2022-09-17T02:27:37.005Z,10.80
2022-09-17T02:29:40.095Z,10.80
2022-09-17T02:31:42.508Z,10.80
2022-09-17T02:33:50.220Z,10.90
2022-09-17T02:35:52.251Z,10.70
2022-09-17T02:37:53.946Z,10.70
2022-09-17T02:39:55.883Z,10.70
2022-09-17T02:42:17.336Z,10.70
2022-09-17T02:44:24.861Z,10.70
2022-09-17T02:46:26.522Z,10.70
2022-09-17T02:48:37.506Z,10.60
2022-09-17T02:50:41.751Z,10.60
2022-09-17T02:52:44.388Z,10.60
2022-09-17T02:54:46.031Z,10.60
2022-09-17T02:57:05.877Z,10.60
2022-09-17T02:59:13.952Z,10.60
2022-09-17T03:01:22.925Z,10.60
2022-09-17T03:03:33.777Z,10.50
2022-09-17T03:05:36.499Z,10.50
2022-09-17T03:07:38.649Z,10.50
2022-09-17T03:09:41.721Z,10.40
2022-09-17T03:11:43.445Z,10.40
2022-09-17T03:13:45.107Z,10.30
2022-09-17T03:15:46.745Z,10.40
2022-09-17T03:17:53.145Z,10.40
2022-09-17T03:19:55.044Z,10.40
2022-09-17T03:21:56.638Z,10.40
2022-09-17T03:24:00.294Z,10.40
2022-09-17T03:26:02.001Z,10.40
2022-09-17T03:28:03.674Z,10.40
2022-09-17T03:30:06.947Z,10.40
2022-09-17T03:32:08.626Z,10.40
2022-09-17T03:34:10.260Z,10.40
2022-09-17T03:36:11.848Z,10.40
2022-09-17T03:38:13.836Z,10.30
2022-09-17T03:40:15.585Z,10.30
2022-09-17T03:42:17.288Z,10.30
2022-09-17T03:44:19.515Z,10.20
2022-09-17T03:46:21.388Z,10.20
2022-09-17T03:48:23.532Z,10.20
2022-09-17T03:50:25.175Z,10.20
2022-09-17T03:52:26.808Z,10.10
2022-09-17T03:54:28.618Z,10.10
2022-09-17T03:56:30.260Z,10.00
2022-09-17T03:58:32.211Z,10.10
2022-09-17T04:00:34.738Z,10.10
2022-09-17T04:02:36.494Z,10.10
2022-09-17T04:04:38.221Z,10.10
2022-09-17T04:06:39.820Z,10.10
2022-09-17T04:08:41.562Z,10.10
2022-09-17T04:10:43.911Z,10.10
2022-09-17T04:12:45.588Z,10.10
2022-09-17T04:14:47.220Z,10.10
2022-09-17T04:16:48.860Z,10.10
2022-09-17T04:18:50.498Z,10.10
2022-09-17T04:20:52.151Z,10.10
2022-09-17T04:22:54.101Z,10.10
2022-09-17T04:24:55.779Z,10.10
2022-09-17T04:26:57.362Z,10.10
2022-09-17T04:28:59.040Z,10.10
2022-09-17T04:31:00.755Z,10.10
2022-09-17T04:33:02.491Z,10.10
2022-09-17T04:35:04.617Z,10.20
2022-09-17T04:37:06.293Z,10.20
2022-09-17T04:39:08.740Z,10.10
2022-09-17T04:41:10.346Z,10.10
2022-09-17T04:43:12.278Z,10.10
2022-09-17T04:45:13.945Z,10.10
2022-09-17T04:47:15.793Z,10.20
2022-09-17T04:49:17.412Z,10.10
2022-09-17T04:51:19.066Z,10.10
2022-09-17T04:53:20.764Z,10.10
2022-09-17T04:55:22.460Z,10.10
2022-09-17T04:57:25.535Z,10.20
2022-09-17T04:59:27.242Z,10.20
2022-09-17T05:01:28.930Z,10.20
2022-09-17T05:03:30.583Z,10.20
2022-09-17T05:05:32.187Z,10.20
2022-09-17T05:07:33.831Z,10.20
2022-09-17T05:09:35.482Z,10.10
2022-09-17T05:11:37.095Z,10.10
2022-09-17T05:13:38.723Z,10.10
2022-09-17T05:15:40.543Z,10.10
2022-09-17T05:17:42.203Z,10.10
2022-09-17T05:19:43.876Z,10.10
2022-09-17T05:21:45.518Z,10.10
2022-09-17T05:23:48.032Z,10.10
2022-09-17T05:25:49.765Z,10.10
2022-09-17T05:27:52.354Z,10.10
2022-09-17T05:29:54.075Z,10.10
2022-09-17T05:31:55.757Z,10.00
2022-09-17T05:33:58.294Z,10.00
2022-09-17T05:36:00.094Z,10.00
2022-09-17T05:38:02.696Z,10.10
2022-09-17T05:40:06.938Z,10.10
2022-09-17T05:42:08.675Z,10.10
2022-09-17T05:44:12.872Z,10.10
2022-09-17T05:46:17.763Z,10.10
2022-09-17T05:48:19.416Z,10.10
2022-09-17T05:50:21.041Z,10.10
2022-09-17T05:52:22.702Z,10.10
2022-09-17T05:54:24.335Z,10.10
2022-09-17T05:56:25.925Z,10.00
2022-09-17T05:58:27.641Z,10.00
2022-09-17T06:00:29.922Z,10.00
2022-09-17T06:02:31.552Z,10.00
2022-09-17T06:04:35.084Z,10.00
2022-09-17T06:06:38.847Z,10.10
2022-09-17T06:08:40.640Z,10.00
2022-09-17T06:10:42.443Z,10.00
2022-09-17T06:12:44.188Z,10.00
2022-09-17T06:14:45.881Z,10.00
2022-09-17T06:16:47.681Z,10.00
2022-09-17T06:18:55.237Z,10.00
2022-09-17T06:21:00.893Z,10.00
2022-09-17T06:23:02.629Z,10.00
2022-09-17T06:25:04.886Z,10.00
2022-09-17T06:27:06.561Z,10.00
2022-09-17T06:29:08.230Z,10.00
2022-09-17T06:31:11.025Z,10.00
2022-09-17T06:33:12.681Z,10.00
2022-09-17T06:35:14.363Z,9.90
2022-09-17T06:37:16.237Z,9.90
2022-09-17T06:39:17.952Z,9.90
2022-09-17T06:41:19.638Z,9.90
2022-09-17T06:43:21.603Z,9.90
2022-09-17T06:45:23.203Z,9.90
2022-09-17T06:47:25.263Z,9.90
2022-09-17T06:49:27.124Z,10.00
2022-09-17T06:51:28.865Z,10.00
2022-09-17T06:53:31.206Z,10.00
2022-09-17T06:55:32.800Z,10.00
2022-09-17T06:57:34.580Z,10.00
2022-09-17T06:59:36.210Z,10.00
2022-09-17T07:01:38.060Z,10.00
2022-09-17T07:03:42.804Z,10.00
2022-09-17T07:05:45.081Z,10.00
2022-09-17T07:07:46.746Z,10.00
2022-09-17T07:09:48.740Z,10.00
2022-09-17T07:11:50.498Z,10.00
2022-09-17T07:13:52.229Z,10.00
2022-09-17T07:15:58.156Z,10.00
2022-09-17T07:17:59.995Z,9.90
2022-09-17T07:20:01.779Z,10.00
2022-09-17T07:22:03.497Z,10.00
2022-09-17T07:24:05.226Z,10.00
2022-09-17T07:26:08.149Z,10.00
2022-09-17T07:28:09.768Z,10.00
2022-09-17T07:30:12.886Z,10.00
2022-09-17T07:32:14.565Z,10.10
2022-09-17T07:34:16.192Z,10.10
2022-09-17T07:36:18.062Z,10.20
2022-09-17T07:38:20.091Z,10.20
2022-09-17T07:40:21.728Z,10.30
2022-09-17T07:42:23.434Z,10.30
2022-09-17T07:44:25.231Z,10.40
2022-09-17T07:46:26.882Z,10.40
2022-09-17T07:48:29.037Z,10.50
2022-09-17T07:50:31.849Z,10.50
2022-09-17T07:52:33.776Z,10.50
2022-09-17T07:54:37.328Z,10.50
2022-09-17T07:56:39.026Z,10.60
2022-09-17T07:58:40.787Z,10.60
2022-09-17T08:00:43.153Z,10.70
2022-09-17T08:02:44.908Z,10.70
2022-09-17T08:04:46.675Z,10.70
2022-09-17T08:06:51.097Z,10.70
2022-09-17T08:08:52.918Z,10.80
2022-09-17T08:10:54.567Z,10.80
2022-09-17T08:12:57.006Z,10.70
2022-09-17T08:14:58.681Z,10.70
2022-09-17T08:17:00.403Z,10.70
2022-09-17T08:19:02.148Z,10.70
2022-09-17T08:21:04.914Z,10.70
2022-09-17T08:23:06.789Z,10.80
2022-09-17T08:25:09.995Z,10.90
2022-09-17T08:27:11.864Z,10.90
2022-09-17T08:29:14.080Z,10.90
2022-09-17T08:31:17.008Z,10.90
2022-09-17T08:33:18.738Z,11.00
2022-09-17T08:35:20.425Z,11.10
2022-09-17T08:37:22.081Z,11.10
2022-09-17T08:39:23.772Z,11.20
2022-09-17T08:41:34.725Z,11.40
2022-09-17T08:43:40.243Z,11.30
2022-09-17T08:45:42.145Z,11.30
2022-09-17T08:47:43.876Z,11.40
2022-09-17T08:49:50.744Z,11.40
2022-09-17T08:52:03.184Z,11.50
2022-09-17T08:54:13.336Z,11.60
2022-09-17T08:56:16.554Z,11.70
2022-09-17T08:58:37.194Z,11.70
2022-09-17T09:00:45.993Z,11.70
2022-09-17T09:03:06.351Z,11.70
2022-09-17T09:05:19.696Z,11.60
2022-09-17T09:07:26.206Z,11.50
2022-09-17T09:09:30.934Z,11.50
2022-09-17T09:11:32.808Z,11.50
2022-09-17T09:13:36.899Z,11.40
2022-09-17T09:15:42.389Z,11.50
2022-09-17T09:17:46.210Z,11.50
2022-09-17T09:19:49.762Z,11.40
2022-09-17T09:21:57.608Z,11.40
2022-09-17T09:24:05.318Z,11.40
2022-09-17T09:26:13.293Z,11.40
2022-09-17T09:28:24.243Z,11.40
2022-09-17T09:30:29.068Z,11.40
2022-09-17T09:32:36.794Z,11.30
2022-09-17T09:34:38.656Z,11.30
2022-09-17T09:36:40.329Z,11.30
2022-09-17T09:38:48.929Z,11.30
2022-09-17T09:40:50.542Z,11.30
2022-09-17T09:42:53.577Z,11.30
2022-09-17T09:45:00.449Z,11.30
2022-09-17T09:47:10.667Z,11.30
2022-09-17T09:49:22.721Z,11.30
2022-09-17T09:51:33.360Z,11.30
2022-09-17T09:53:40.928Z,11.30
2022-09-17T09:55:50.984Z,11.30
2022-09-17T09:57:55.824Z,11.30
2022-09-17T10:00:16.187Z,11.30
2022-09-17T10:02:17.920Z,11.30
2022-09-17T10:04:21.429Z,11.20
2022-09-17T10:06:23.119Z,11.20
2022-09-17T10:08:25.078Z,11.20
2022-09-17T10:10:26.726Z,11.20
2022-09-17T10:12:28.380Z,11.30
2022-09-17T10:14:32.306Z,11.40
2022-09-17T10:16:36.298Z,11.40
2022-09-17T10:18:37.982Z,11.30
2022-09-17T10:20:49.580Z,11.20
2022-09-17T10:22:51.370Z,11.20
2022-09-17T10:24:54.348Z,11.10
2022-09-17T10:27:01.669Z,11.10
2022-09-17T10:29:04.928Z,11.10
2022-09-17T10:31:10.451Z,11.10
2022-09-17T10:33:21.630Z,11.10
2022-09-17T10:35:23.241Z,11.00
2022-09-17T10:37:35.458Z,10.90
2022-09-17T10:39:44.177Z,10.80
2022-09-17T10:41:56.016Z,10.80
2022-09-17T10:44:16.843Z,10.70
2022-09-17T10:46:25.232Z,10.70
2022-09-17T10:48:32.060Z,10.60
2022-09-17T10:50:34.432Z,10.50
2022-09-17T10:52:38.057Z,10.50
2022-09-17T10:54:40.697Z,10.40
2022-09-17T10:56:44.736Z,10.40
2022-09-17T10:58:58.448Z,10.40
2022-09-17T11:01:18.980Z,10.40
2022-09-17T11:03:39.751Z,10.50
2022-09-17T11:05:50.427Z,10.40
2022-09-17T11:08:04.904Z,10.50
2022-09-17T11:10:09.439Z,10.50
2022-09-17T11:12:24.387Z,10.50
2022-09-17T11:14:35.900Z,10.70
2022-09-17T11:16:40.776Z,10.70
2022-09-17T11:18:51.276Z,10.70
2022-09-17T11:20:58.491Z,10.70
2022-09-17T11:23:23.211Z,10.70
2022-09-17T11:25:37.292Z,10.70
2022-09-17T11:27:59.849Z,10.70
2022-09-17T11:30:10.674Z,10.70
2022-09-17T11:32:25.612Z,10.70
2022-09-17T11:34:35.072Z,10.70
2022-09-17T11:37:02.922Z,10.70
2022-09-17T11:39:14.051Z,10.60
2022-09-17T11:41:17.782Z,10.60
2022-09-17T11:43:24.599Z,10.60
2022-09-17T11:45:34.509Z,10.70
2022-09-17T11:47:39.253Z,10.70
2022-09-17T11:49:50.963Z,10.80
2022-09-17T11:51:55.359Z,10.80
2022-09-17T11:54:06.127Z,10.90
2022-09-17T11:56:10.792Z,10.90
2022-09-17T11:58:16.971Z,10.90
2022-09-17T12:00:20.146Z,10.80
2022-09-17T12:02:28.238Z,10.90
2022-09-17T12:04:34.020Z,11.00
2022-09-17T12:06:38.462Z,11.10
2022-09-17T12:08:43.565Z,11.20
2022-09-17T12:10:45.166Z,11.20
2022-09-17T12:12:54.736Z,11.20
2022-09-17T12:14:58.933Z,11.20
2022-09-17T12:17:02.549Z,11.30
2022-09-17T12:19:22.506Z,11.30
2022-09-17T12:21:27.839Z,11.40
2022-09-17T12:23:38.813Z,11.50
2022-09-17T12:25:45.176Z,11.50
2022-09-17T12:27:59.833Z,11.70
2022-09-17T12:30:04.515Z,11.70
2022-09-17T12:32:09.346Z,11.70
2022-09-17T12:34:25.439Z,11.70
2022-09-17T12:36:34.992Z,11.60
2022-09-17T12:38:57.366Z,11.60
2022-09-17T12:41:14.864Z,11.50
2022-09-17T12:43:35.240Z,11.50
2022-09-17T12:45:50.509Z,11.50
2022-09-17T12:48:07.725Z,11.40
2022-09-17T12:50:15.082Z,11.40
2022-09-17T12:52:16.703Z,11.30
2022-09-17T12:54:36.264Z,11.30
2022-09-17T12:56:56.807Z,11.30
2022-09-17T12:59:08.163Z,11.20
2022-09-17T13:01:22.063Z,11.20
2022-09-17T13:03:27.753Z,11.20
2022-09-17T13:05:36.101Z,11.10
2022-09-17T13:07:56.666Z,11.00
2022-09-17T13:10:00.927Z,11.10
2022-09-17T13:12:02.922Z,11.40
2022-09-17T13:14:24.382Z,11.40
2022-09-17T13:16:37.264Z,11.70
2022-09-17T13:18:59.375Z,11.90
2022-09-17T13:21:05.620Z,12.10
2022-09-17T13:23:07.458Z,12.00
2022-09-17T13:25:11.655Z,11.90
2022-09-17T13:27:25.603Z,11.90
2022-09-17T13:29:46.050Z,11.80
2022-09-17T13:31:48.930Z,11.70
2022-09-17T13:34:00.475Z,11.60
2022-09-17T13:36:03.702Z,11.60
2022-09-17T13:38:05.353Z,11.50
2022-09-17T13:40:23.798Z,11.50
2022-09-17T13:42:30.370Z,11.50
2022-09-17T13:44:34.651Z,11.60
2022-09-17T13:46:38.517Z,11.50
2022-09-17T13:48:51.302Z,11.50
2022-09-17T13:50:53.587Z,11.50
2022-09-17T13:53:18.241Z,11.40
2022-09-17T13:55:39.809Z,11.40
2022-09-17T13:57:50.765Z,11.40
2022-09-17T13:59:57.058Z,11.30
2022-09-17T14:02:13.834Z,11.20
2022-09-17T14:04:54.260Z,11.10
2022-09-17T14:06:57.755Z,11.00
2022-09-17T14:08:59.462Z,11.00
2022-09-17T14:11:02.352Z,11.00
2022-09-17T14:13:23.596Z,11.00
2022-09-17T14:15:31.316Z,11.10
2022-09-17T14:17:50.846Z,11.10
2022-09-17T14:19:54.875Z,11.30
2022-09-17T14:22:02.576Z,11.50
2022-09-17T14:24:15.684Z,11.70
2022-09-17T14:26:28.554Z,11.90
2022-09-17T14:28:34.066Z,12.10
2022-09-17T14:30:35.805Z,12.40
2022-09-17T14:32:46.743Z,12.60
2022-09-17T14:34:49.340Z,12.90
2022-09-17T14:36:52.616Z,13.10
2022-09-17T14:38:56.709Z,13.30
2022-09-17T14:41:05.018Z,13.60
2022-09-17T14:43:06.713Z,13.80
2022-09-17T14:45:14.614Z,13.80
2022-09-17T14:47:18.237Z,13.60
2022-09-17T14:49:27.285Z,13.50
2022-09-17T14:51:29.605Z,13.30
2022-09-17T14:53:31.263Z,13.10
2022-09-17T14:55:33.088Z,13.00
2022-09-17T14:57:35.302Z,12.90
2022-09-17T14:59:46.030Z,12.80
2022-09-17T15:01:48.291Z,12.60
2022-09-17T15:03:50.207Z,12.50
2022-09-17T15:05:52.263Z,12.30
2022-09-17T15:08:12.920Z,12.20
2022-09-17T15:10:16.413Z,12.10
2022-09-17T15:12:18.871Z,12.00
2022-09-17T15:14:27.157Z,11.90
2022-09-17T15:16:30.662Z,11.80
2022-09-17T15:18:41.307Z,11.70
2022-09-17T15:20:46.817Z,11.60
2022-09-17T15:22:51.833Z,11.50
2022-09-17T15:24:59.520Z,11.50
2022-09-17T15:27:04.737Z,11.50
2022-09-17T15:29:06.620Z,11.40
2022-09-17T15:31:17.399Z,11.30
2022-09-17T15:33:24.111Z,11.30
2022-09-17T15:35:28.238Z,11.30
2022-09-17T15:37:29.851Z,11.20
2022-09-17T15:39:37.953Z,11.20
2022-09-17T15:41:41.895Z,11.20
2022-09-17T15:43:44.550Z,11.10
2022-09-17T15:45:46.281Z,11.00
2022-09-17T15:47:50.652Z,10.90
2022-09-17T15:50:12.633Z,10.80
2022-09-17T15:52:32.761Z,10.80
2022-09-17T15:54:37.337Z,10.70
2022-09-17T15:56:40.023Z,10.60
2022-09-17T15:58:41.632Z,10.60
2022-09-17T16:00:43.334Z,10.50
2022-09-17T16:02:45.122Z,10.50
2022-09-17T16:04:52.697Z,10.40
2022-09-17T16:06:57.315Z,10.40
2022-09-17T16:09:00.735Z,10.40
2022-09-17T16:11:02.406Z,10.40
2022-09-17T16:13:04.059Z,10.40
2022-09-17T16:15:06.017Z,10.40
2022-09-17T16:17:24.841Z,10.40
2022-09-17T16:19:26.758Z,10.40
2022-09-17T16:21:29.064Z,10.40
2022-09-17T16:23:30.726Z,10.40
2022-09-17T16:25:32.500Z,10.40
2022-09-17T16:28:00.562Z,10.40
2022-09-17T16:30:04.341Z,10.40
2022-09-17T16:32:06.180Z,10.30
2022-09-17T16:34:07.846Z,10.40
2022-09-17T16:36:09.557Z,10.30
2022-09-17T16:38:11.700Z,10.30
2022-09-17T16:40:13.679Z,10.40
2022-09-17T16:42:15.334Z,10.30
2022-09-17T16:44:16.969Z,10.30
2022-09-17T16:46:18.753Z,10.20
2022-09-17T16:48:20.412Z,10.30
2022-09-17T16:50:22.065Z,10.20
2022-09-17T16:52:23.859Z,10.20
2022-09-17T16:54:25.543Z,10.20
2022-09-17T16:56:27.217Z,10.20
2022-09-17T16:58:28.942Z,10.20
2022-09-17T17:00:30.674Z,10.20
2022-09-17T17:02:32.359Z,10.10
2022-09-17T17:04:34.026Z,10.10
2022-09-17T17:06:35.696Z,10.10
2022-09-17T17:08:37.329Z,10.10
2022-09-17T17:10:39.358Z,10.10
2022-09-17T17:12:41.015Z,10.00
2022-09-17T17:14:44.447Z,10.00
2022-09-17T17:16:46.142Z,10.00
2022-09-17T17:18:47.758Z,9.90
2022-09-17T17:20:49.405Z,9.90
2022-09-17T17:22:51.965Z,9.80
2022-09-17T17:24:53.609Z,9.80
2022-09-17T17:26:55.277Z,9.70
2022-09-17T17:28:56.942Z,9.70
2022-09-17T17:30:58.936Z,9.70
2022-09-17T17:33:01.008Z,9.60
2022-09-17T17:35:03.510Z,9.60
2022-09-17T17:37:05.272Z,9.60
2022-09-17T17:39:06.968Z,9.60
2022-09-17T17:41:10.082Z,9.60
2022-09-17T17:43:13.230Z,9.60
2022-09-17T17:45:15.574Z,9.60
2022-09-17T17:47:17.227Z,9.50
2022-09-17T17:49:18.932Z,9.40
2022-09-17T17:51:23.655Z,9.40
2022-09-17T17:53:26.266Z,9.40
2022-09-17T17:55:27.944Z,9.30
2022-09-17T17:57:29.570Z,9.30
2022-09-17T17:59:31.260Z,9.30
2022-09-17T18:01:35.867Z,9.40
2022-09-17T18:03:37.554Z,9.40
2022-09-17T18:05:39.679Z,9.40
2022-09-17T18:07:41.421Z,9.40
2022-09-17T18:09:43.133Z,9.40
2022-09-17T18:11:44.994Z,9.40
2022-09-17T18:13:46.668Z,9.40
2022-09-17T18:15:55.526Z,9.40
2022-09-17T18:17:57.211Z,9.40
2022-09-17T18:19:58.876Z,9.30
2022-09-17T18:22:00.544Z,9.30
2022-09-17T18:24:02.305Z,9.30
2022-09-17T18:26:04.909Z,9.30
2022-09-17T18:28:06.526Z,9.30
2022-09-17T18:30:08.509Z,9.30
2022-09-17T18:32:10.294Z,9.30
2022-09-17T18:34:13.757Z,9.40
2022-09-17T18:36:15.395Z,9.40
2022-09-17T18:38:17.336Z,9.40
2022-09-17T18:40:19.073Z,9.30
2022-09-17T18:42:20.749Z,9.30
2022-09-17T18:44:22.540Z,9.30
2022-09-17T18:46:24.367Z,9.30
2022-09-17T18:48:26.252Z,9.30
2022-09-17T18:50:27.915Z,9.20
2022-09-17T18:52:29.585Z,9.20
2022-09-17T18:54:31.335Z,9.10
2022-09-17T18:56:33.207Z,9.20
2022-09-17T18:58:34.942Z,9.20
2022-09-17T19:00:39.737Z,9.10
2022-09-17T19:02:41.412Z,9.20
2022-09-17T19:04:43.093Z,9.20
2022-09-17T19:06:45.310Z,9.20
2022-09-17T19:08:46.980Z,9.10
2022-09-17T19:10:51.897Z,9.20
2022-09-17T19:12:53.969Z,9.20
2022-09-17T19:14:55.612Z,9.20
2022-09-17T19:16:57.301Z,9.20
2022-09-17T19:18:58.953Z,9.20
2022-09-17T19:21:01.654Z,9.20
2022-09-17T19:23:03.674Z,9.20
2022-09-17T19:25:05.527Z,9.20
2022-09-17T19:27:07.628Z,9.30
2022-09-17T19:29:11.473Z,9.20
2022-09-17T19:31:14.627Z,9.20
2022-09-17T19:33:16.328Z,9.20
2022-09-17T19:35:18.048Z,9.20
2022-09-17T19:37:19.746Z,9.20
2022-09-17T19:39:21.439Z,9.20
2022-09-17T19:41:23.389Z,9.20
2022-09-17T19:43:26.031Z,9.20
2022-09-17T19:45:28.406Z,9.20
2022-09-17T19:47:30.079Z,9.20
2022-09-17T19:49:31.825Z,9.20
2022-09-17T19:51:33.872Z,9.20
2022-09-17T19:53:35.497Z,9.20
2022-09-17T19:55:37.947Z,9.20
2022-09-17T19:57:39.721Z,9.20
2022-09-17T19:59:41.322Z,9.20
2022-09-17T20:01:49.310Z,9.20
2022-09-17T20:03:53.108Z,9.20
2022-09-17T20:06:05.396Z,9.20
2022-09-17T20:08:07.110Z,9.20
2022-09-17T20:10:08.941Z,9.20
2022-09-17T20:12:10.602Z,9.20
2022-09-17T20:14:12.580Z,9.20
2022-09-17T20:16:15.758Z,9.20
2022-09-17T20:18:22.572Z,9.20
2022-09-17T20:20:28.447Z,9.20
2022-09-17T20:22:30.055Z,9.20
2022-09-17T20:24:31.673Z,9.30
2022-09-17T20:26:33.929Z,9.30
2022-09-17T20:28:35.768Z,9.30
2022-09-17T20:30:37.373Z,9.30
2022-09-17T20:32:39.001Z,9.30
2022-09-17T20:34:41.092Z,9.40
2022-09-17T20:36:42.723Z,9.40
2022-09-17T20:41:07.207Z,9.40
2022-09-17T20:43:08.853Z,9.40
2022-09-17T20:45:10.563Z,9.50
2022-09-17T20:47:12.173Z,9.50
2022-09-17T20:49:13.814Z,9.40
2022-09-17T20:51:16.703Z,9.30
2022-09-17T20:53:18.332Z,9.30
2022-09-17T20:55:20.932Z,9.20
2022-09-17T20:57:22.593Z,9.20
2022-09-17T20:59:28.016Z,9.10
2022-09-17T21:01:34.373Z,9.10
2022-09-17T21:03:38.570Z,9.10
2022-09-17T21:05:40.273Z,9.10
2022-09-17T21:07:41.902Z,9.10
2022-09-17T21:09:43.842Z,9.10
2022-09-17T21:11:46.340Z,9.00
2022-09-17T21:13:48.082Z,9.10
2022-09-17T21:15:56.658Z,9.10
2022-09-17T21:17:58.272Z,9.10
2022-09-17T21:19:59.899Z,9.10
2022-09-17T21:22:01.697Z,9.10
2022-09-17T21:24:04.810Z,9.10
2022-09-17T21:26:13.367Z,9.10
2022-09-17T21:28:15.229Z,9.10
2022-09-17T21:30:16.922Z,9.10
2022-09-17T21:32:18.609Z,9.10
2022-09-17T21:34:20.260Z,9.10
2022-09-17T21:36:23.138Z,9.00
2022-09-17T21:38:24.746Z,9.10
2022-09-17T21:40:26.787Z,9.10
2022-09-17T21:42:28.407Z,9.00
2022-09-17T21:44:30.196Z,9.00
2022-09-17T21:46:33.461Z,9.10
2022-09-17T21:48:36.364Z,9.10
2022-09-17T21:50:37.967Z,9.00
2022-09-17T21:52:39.636Z,9.10
2022-09-17T21:54:41.248Z,9.00
2022-09-17T21:56:43.434Z,8.90
2022-09-17T21:58:45.828Z,8.90
2022-09-17T22:00:52.143Z,8.90
2022-09-17T22:02:54.131Z,8.90
2022-09-17T22:04:55.810Z,8.90
2022-09-17T22:06:57.600Z,8.80
2022-09-17T22:09:00.330Z,8.80
2022-09-17T22:11:06.097Z,8.70
2022-09-17T22:13:09.028Z,8.70
2022-09-17T22:15:10.840Z,8.60
2022-09-17T22:17:12.484Z,8.60
2022-09-17T22:19:15.408Z,8.60
2022-09-17T22:21:21.319Z,8.60
2022-09-17T22:23:23.382Z,8.50
2022-09-17T22:25:25.396Z,8.40
2022-09-17T22:27:27.053Z,8.40
2022-09-17T22:29:31.613Z,8.40
2022-09-17T22:31:33.741Z,8.30
2022-09-17T22:33:36.207Z,8.20
2022-09-17T22:35:37.815Z,8.20
2022-09-17T22:37:39.480Z,8.20
2022-09-17T22:39:41.099Z,8.10
2022-09-17T22:41:45.334Z,8.10
2022-09-17T22:43:47.338Z,8.10
2022-09-17T22:45:48.936Z,8.10
2022-09-17T22:47:50.542Z,8.10
2022-09-17T22:49:52.157Z,8.10
2022-09-17T22:51:53.822Z,8.10
2022-09-17T22:53:56.084Z,8.00
2022-09-17T22:55:57.912Z,8.00
2022-09-17T22:57:59.712Z,8.00
2022-09-17T23:00:01.481Z,8.00
2022-09-17T23:02:03.307Z,8.00
2022-09-17T23:04:05.264Z,8.00
2022-09-17T23:06:08.495Z,8.00
2022-09-17T23:08:10.166Z,8.00
2022-09-17T23:10:11.961Z,7.90
2022-09-17T23:12:13.605Z,7.90
2022-09-17T23:14:16.896Z,7.90
2022-09-17T23:16:18.950Z,7.90
2022-09-17T23:18:20.571Z,7.90
2022-09-17T23:20:22.160Z,7.80
2022-09-17T23:22:23.808Z,7.90
2022-09-17T23:24:25.522Z,7.90
2022-09-17T23:26:27.356Z,7.90
2022-09-17T23:28:29.061Z,7.90
2022-09-17T23:30:30.697Z,7.80
2022-09-17T23:32:34.224Z,7.80
2022-09-17T23:34:37.673Z,7.80
2022-09-17T23:36:40.124Z,7.80
2022-09-17T23:38:42.947Z,7.80
2022-09-17T23:40:44.551Z,7.80
2022-09-17T23:42:46.141Z,7.80
2022-09-17T23:44:47.815Z,7.80
2022-09-17T23:46:49.552Z,7.80
2022-09-17T23:48:53.324Z,7.90
2022-09-17T23:50:54.974Z,7.90
2022-09-17T23:52:56.575Z,7.90
2022-09-17T23:54:58.673Z,7.90
2022-09-17T23:57:00.351Z,7.90
2022-09-17T23:59:02.027Z,7.90
